Time;durP1;ratioP1;P1;durP2;ratioP2;P2;SDS_P1;SDS_P2;PMS_P1;PMS_P2;Temp;Humidity;BMP_temperature;BMP_pressure;BME280_temperature;BME280_humidity;BME280_pressure;Samples;Min_cycle;Max_cycle;Signal;HPM_P1;HPM_P2
2021/08/29 00:01:14;206752.00;0.69;357.55;0.00;0.00;0.62;;;;;19.30;1.00;;;;;;2280130;60;1397;-87
2021/08/29 00:03:41;183946.00;0.61;318.28;0.00;0.00;0.62;;;;;19.50;1.00;;;;;;2290777;60;1226;-87
2021/08/29 00:06:10;341987.00;1.14;590.09;0.00;0.00;0.62;;;;;19.40;1.00;;;;;;2290219;60;1187;-87
2021/08/29 00:08:37;159567.00;0.53;276.29;0.00;0.00;0.62;;;;;19.30;1.00;;;;;;2290557;60;1143;-88
2021/08/29 00:11:05;429740.00;1.43;740.94;0.00;0.00;0.62;;;;;19.30;1.00;;;;;;2290451;60;1395;-87
2021/08/29 00:13:35;1041183.00;3.47;1805.55;38843.00;0.13;67.89;;;;;19.10;1.00;;;;;;2291114;60;1933;-88
2021/08/29 00:16:02;1012079.00;3.37;1753.88;98217.00;0.33;170.49;;;;;18.90;1.00;;;;;;2291581;60;1183;-88
2021/08/29 00:18:29;766881.00;2.56;1323.42;12317.00;0.04;21.96;;;;;18.80;1.00;;;;;;2290343;60;1820;-88
2021/08/29 00:20:56;676972.00;2.26;1167.33;74192.00;0.25;129.00;;;;;18.60;1.00;;;;;;2290810;60;1325;-87
2021/08/29 00:23:25;759124.00;2.53;1309.93;60947.00;0.20;106.11;;;;;19.00;1.00;;;;;;2290374;60;1172;-88
2021/08/29 00:25:55;1038137.00;3.46;1800.14;31812.00;0.11;55.72;;;;;18.70;1.00;;;;;;2283968;60;1180;-87
2021/08/29 00:28:31;771956.00;2.57;1332.26;3373.00;0.01;6.47;;;;;18.50;1.00;;;;;;2291613;60;1098;-88
2021/08/29 00:31:00;834590.00;2.78;1441.52;42548.00;0.14;74.30;;;;;18.70;1.00;;;;;;2292307;60;1443;-86
2021/08/29 00:33:27;731479.00;2.44;1261.87;30073.00;0.10;52.71;;;;;18.70;1.00;;;;;;2291277;60;1988;-87
2021/08/29 00:35:54;570244.00;1.90;982.87;41484.00;0.14;72.46;;;;;18.80;1.00;;;;;;2291001;60;1102;-88
2021/08/29 00:38:24;795642.00;2.65;1373.52;17972.00;0.06;31.76;;;;;18.50;1.00;;;;;;2290821;60;1239;-88
2021/08/29 00:40:52;792476.00;2.64;1368.01;82655.00;0.28;143.62;;;;;18.40;1.00;;;;;;2292158;60;1379;-88
2021/08/29 00:43:27;1087082.00;3.62;1887.34;66923.00;0.22;116.44;;;;;18.20;1.00;;;;;;2292132;60;1199;-88
2021/08/29 00:45:57;630311.00;2.10;1086.59;64943.00;0.22;113.02;;;;;18.10;1.00;;;;;;2292176;60;1064;-88
2021/08/29 00:48:25;103518.00;0.35;179.64;0.00;0.00;0.62;;;;;17.70;1.00;;;;;;2281512;60;1165;-88
2021/08/29 00:50:51;165018.00;0.55;285.68;0.00;0.00;0.62;;;;;17.70;1.00;;;;;;2292529;60;1368;-88
2021/08/29 00:53:20;280653.00;0.94;484.66;0.00;0.00;0.62;;;;;17.50;1.00;;;;;;2292805;60;1997;-87
2021/08/29 00:55:56;416820.00;1.39;718.72;0.00;0.00;0.62;;;;;17.30;1.00;;;;;;2292566;60;1006;-87
2021/08/29 00:58:25;278860.00;0.93;481.58;0.00;0.00;0.62;;;;;17.40;1.00;;;;;;2290642;60;1287;-88
2021/08/29 01:00:53;145320.00;0.48;251.74;0.00;0.00;0.62;;;;;17.60;1.00;;;;;;2290771;60;1415;-88
2021/08/29 01:03:24;173770.00;0.58;300.76;0.00;0.00;0.62;;;;;17.70;1.00;;;;;;2290624;60;1712;-88
2021/08/29 01:06:00;140115.00;0.47;242.77;0.00;0.00;0.62;;;;;17.60;1.00;;;;;;2289695;60;1594;-88
2021/08/29 01:08:33;121328.00;0.40;210.37;0.00;0.00;0.62;;;;;17.50;1.00;;;;;;2289982;60;1172;-88
2021/08/29 01:11:09;239454.00;0.80;413.81;0.00;0.00;0.62;;;;;17.40;1.00;;;;;;2290843;60;1460;-87
2021/08/29 01:13:45;180808.00;0.60;312.88;0.00;0.00;0.62;;;;;17.20;1.20;;;;;;2291369;60;1997;-88
2021/08/29 01:16:17;164932.00;0.55;285.54;0.00;0.00;0.62;;;;;17.30;1.00;;;;;;2283684;60;1078;-88
2021/08/29 01:18:48;191037.00;0.64;330.49;0.00;0.00;0.62;;;;;17.40;1.00;;;;;;2290254;60;1334;-88
2021/08/29 01:21:19;214745.00;0.72;371.30;0.00;0.00;0.62;;;;;17.20;1.40;;;;;;2290772;60;1263;-88
2021/08/29 01:23:48;259489.00;0.86;448.27;0.00;0.00;0.62;;;;;17.30;1.90;;;;;;2290801;60;1069;-88
2021/08/29 01:26:21;262712.00;0.88;453.81;0.00;0.00;0.62;;;;;17.20;1.00;;;;;;2290318;60;1169;-88
2021/08/29 01:28:56;221573.00;0.74;383.05;0.00;0.00;0.62;;;;;17.50;1.00;;;;;;2291050;60;1106;-87
2021/08/29 01:31:28;213153.00;0.71;368.56;0.00;0.00;0.62;;;;;17.50;1.00;;;;;;2292250;60;1328;-87
2021/08/29 01:33:59;121043.00;0.40;209.88;0.00;0.00;0.62;;;;;17.50;1.00;;;;;;2292759;60;1988;-87
2021/08/29 01:36:27;82320.00;0.27;143.04;0.00;0.00;0.62;;;;;17.40;1.00;;;;;;2292774;60;1729;-87
2021/08/29 01:38:55;150294.00;0.50;260.31;0.00;0.00;0.62;;;;;17.00;1.40;;;;;;2292705;60;1160;-87
2021/08/29 01:41:23;222922.00;0.74;385.37;0.00;0.00;0.62;;;;;17.00;1.70;;;;;;2292519;60;1256;-87
2021/08/29 01:43:51;188330.00;0.63;325.83;0.00;0.00;0.62;;;;;17.00;2.20;;;;;;2282102;60;1295;-87
2021/08/29 01:46:22;329228.00;1.10;568.16;36717.00;0.12;64.21;;;;;17.40;2.40;;;;;;2292681;60;1113;-87
2021/08/29 01:48:50;71706.00;0.24;124.71;0.00;0.00;0.62;;;;;17.40;1.00;;;;;;2291351;60;1121;-87
2021/08/29 01:51:18;238212.00;0.79;411.68;0.00;0.00;0.62;;;;;17.20;1.00;;;;;;2290606;60;1363;-88
2021/08/29 01:53:45;144759.00;0.48;250.77;0.00;0.00;0.62;;;;;17.00;1.50;;;;;;2279844;60;1923;-87
2021/08/29 01:56:12;135966.00;0.45;235.62;0.00;0.00;0.62;;;;;17.00;1.80;;;;;;2290877;60;1204;-88
2021/08/29 01:58:39;165151.00;0.55;285.91;0.00;0.00;0.62;;;;;17.30;3.10;;;;;;2290436;60;1279;-88
2021/08/29 02:01:10;83636.00;0.28;145.32;0.00;0.00;0.62;;;;;17.60;1.30;;;;;;2289989;60;1343;-87
2021/08/29 02:03:41;393917.00;1.31;679.35;46086.00;0.15;80.42;;;;;17.60;1.00;;;;;;2290671;60;1181;-88
2021/08/29 02:06:15;715456.00;2.38;1234.05;65638.00;0.22;114.22;;;;;17.60;1.00;;;;;;2289974;60;1584;-87
2021/08/29 02:08:59;230169.00;0.77;397.84;0.00;0.00;0.62;;;;;17.80;2.00;;;;;;2280400;60;1086;-88
2021/08/29 02:11:29;78598.00;0.26;136.62;0.00;0.00;0.62;;;;;18.10;1.90;;;;;;2291346;60;1403;-87
2021/08/29 02:14:02;345454.00;1.15;596.05;96509.00;0.32;167.55;;;;;18.40;1.00;;;;;;2292186;60;1914;-87
2021/08/29 02:16:30;119631.00;0.40;207.45;0.00;0.00;0.62;;;;;18.60;1.00;;;;;;2290520;60;1145;-88
2021/08/29 02:19:00;74914.00;0.25;130.25;0.00;0.00;0.62;;;;;18.80;1.00;;;;;;2290587;60;1081;-88
2021/08/29 02:21:28;187662.00;0.63;324.68;0.00;0.00;0.62;;;;;19.00;1.00;;;;;;2279293;60;1366;-87
2021/08/29 02:23:55;316992.00;1.06;547.13;37324.00;0.12;65.26;;;;;19.00;1.00;;;;;;2282636;60;1081;-88
2021/08/29 02:26:24;705033.00;2.35;1215.97;66736.00;0.22;116.12;;;;;18.80;1.00;;;;;;2290502;60;1233;-88
2021/08/29 02:28:51;924163.00;3.08;1598.60;94020.00;0.31;163.25;;;;;18.60;1.00;;;;;;2290743;60;1718;-88
2021/08/29 02:31:19;1164953.00;3.88;2026.98;167185.00;0.56;289.42;;;;;18.50;1.00;;;;;;2279815;60;1398;-88
2021/08/29 02:33:48;999121.00;3.33;1730.92;83991.00;0.28;145.93;;;;;18.60;1.00;;;;;;2279814;60;1927;-88
2021/08/29 02:36:17;1581097.00;5.27;2796.67;127364.00;0.42;220.78;;;;;18.50;1.00;;;;;;2279869;60;1169;-88
2021/08/29 02:38:46;992721.00;3.31;1719.58;93075.00;0.31;161.62;;;;;18.40;1.00;;;;;;2280714;60;1094;-88
2021/08/29 02:41:14;891693.00;2.97;1541.53;138251.00;0.46;239.56;;;;;18.50;1.00;;;;;;2290343;60;1348;-88
2021/08/29 02:43:42;1285849.00;4.29;2246.23;179891.00;0.60;311.30;;;;;18.40;1.00;;;;;;2289998;60;1133;-87
2021/08/29 02:46:09;1595633.00;5.32;2824.40;202962.00;0.68;351.02;;;;;18.10;1.00;;;;;;2290515;60;1121;-88
2021/08/29 02:48:44;589882.00;1.97;1016.75;84648.00;0.28;147.07;;;;;18.10;1.00;;;;;;2290371;60;1065;-88
2021/08/29 02:51:13;472185.00;1.57;813.95;97919.00;0.33;169.98;;;;;18.10;1.00;;;;;;2289747;60;1344;-87
2021/08/29 02:53:45;229660.00;0.77;396.96;76860.00;0.26;133.61;;;;;18.30;1.30;;;;;;2290379;60;1922;-87
2021/08/29 02:56:14;436614.00;1.46;752.76;140975.00;0.47;244.25;;;;;18.50;1.00;;;;;;2290592;60;1119;-87
2021/08/29 03:01:23;422931.00;1.41;729.23;91496.00;0.30;158.89;;;;;18.70;1.00;;;;;;2284066;60;1395;-87
2021/08/29 03:03:51;411139.00;1.37;708.96;78566.00;0.26;136.56;;;;;18.20;1.00;;;;;;2284319;60;1078;-87
2021/08/29 03:06:20;459558.00;1.53;792.22;95248.00;0.32;165.37;;;;;18.20;1.00;;;;;;2291489;60;1586;-88
2021/08/29 03:08:49;270451.00;0.90;467.12;82573.00;0.28;143.48;;;;;18.30;1.00;;;;;;2291623;60;1141;-88
2021/08/29 03:11:22;351397.00;1.17;606.26;80146.00;0.27;139.29;;;;;18.40;1.00;;;;;;2281404;60;1301;-88
2021/08/29 03:13:51;244506.00;0.82;422.50;79501.00;0.27;138.18;;;;;18.70;1.00;;;;;;2281830;60;1919;-88
2021/08/29 03:16:18;227451.00;0.76;393.16;64876.00;0.22;112.91;;;;;18.70;1.00;;;;;;2293055;60;1029;-87
2021/08/29 03:18:47;416738.00;1.39;718.58;64097.00;0.21;111.56;;;;;18.90;1.00;;;;;;2292804;60;1689;-88
2021/08/29 03:21:16;118327488.00;394.42;67111152.00;80809.00;0.27;140.43;;;;;19.10;1.00;;;;;;2292802;60;1397;-88
2021/08/29 03:23:46;310214.00;1.03;535.48;57094.00;0.19;99.45;;;;;19.20;1.00;;;;;;2282573;60;1132;-87
2021/08/29 03:26:17;364479.00;1.21;628.75;84274.00;0.28;146.42;;;;;19.40;1.00;;;;;;2293250;60;935;-87
2021/08/29 03:28:44;443644.00;1.48;764.85;124980.00;0.42;216.67;;;;;19.20;1.00;;;;;;2282551;60;1051;-87
2021/08/29 03:31:11;288211.00;0.96;497.65;90386.00;0.30;156.97;;;;;19.00;1.00;;;;;;2280326;61;1288;-87
2021/08/29 03:33:44;458865.00;1.53;791.03;106930.00;0.36;185.53;;;;;19.00;1.00;;;;;;2280382;61;1996;-88
2021/08/29 03:36:14;416301.00;1.39;717.83;114417.00;0.38;198.45;;;;;19.10;1.00;;;;;;2280330;61;1120;-87
2021/08/29 03:38:43;374111.00;1.25;645.30;74978.00;0.25;130.36;;;;;18.80;1.00;;;;;;2280377;61;1029;-87
2021/08/29 03:41:10;315980.00;1.05;545.39;71898.00;0.24;125.04;;;;;18.60;1.00;;;;;;2273544;61;1306;-88
2021/08/29 03:43:39;321373.00;1.07;554.66;76179.00;0.25;132.44;;;;;18.70;1.00;;;;;;2280374;61;1084;-87
2021/08/29 03:46:24;382241.00;1.27;659.28;79954.00;0.27;138.96;;;;;18.50;1.00;;;;;;2273570;61;1049;-87
2021/08/29 03:48:54;597987.00;1.99;1030.74;77704.00;0.26;135.07;;;;;18.60;1.00;;;;;;2283852;60;1069;-88
2021/08/29 03:51:37;417057.00;1.39;719.13;83888.00;0.28;145.75;;;;;18.50;1.00;;;;;;2293018;60;1413;-87
2021/08/29 03:54:07;1385472.00;4.62;2429.41;69309.00;0.23;120.57;;;;;18.40;1.00;;;;;;2293049;60;2003;-88
2021/08/29 03:56:36;897698.00;2.99;1552.08;138360.00;0.46;239.74;;;;;18.30;1.00;;;;;;2293055;60;1055;-87
2021/08/29 03:59:05;717675.00;2.39;1237.90;65021.00;0.22;113.16;;;;;18.40;1.00;;;;;;2293020;60;1113;-88
2021/08/29 04:01:32;858382.00;2.86;1483.14;98782.00;0.33;171.47;;;;;18.40;2.30;;;;;;2282402;60;1381;-87
2021/08/29 04:04:00;557248.00;1.86;960.46;130751.00;0.44;226.62;;;;;18.60;1.10;;;;;;2279652;60;1062;-86
2021/08/29 04:06:29;289878.00;0.97;500.52;83291.00;0.28;144.72;;;;;18.60;1.00;;;;;;2285693;60;1163;-86
2021/08/29 04:09:04;283835.00;0.95;490.13;55446.00;0.18;96.60;;;;;18.70;1.20;;;;;;2276206;61;1099;-86
2021/08/29 04:11:33;126071072.00;420.24;81182232.00;101397.00;0.34;175.98;;;;;18.90;1.00;;;;;;2267830;61;1337;-86
2021/08/29 04:14:01;658540.00;2.20;1135.41;84980.00;0.28;147.64;;;;;19.00;1.00;;;;;;2255941;61;1938;-86
2021/08/29 04:16:31;461257.00;1.54;795.15;79974.00;0.27;138.99;;;;;19.40;1.00;;;;;;2256062;61;1149;-86
2021/08/29 04:19:11;836217.00;2.79;1444.36;71034.00;0.24;123.55;;;;;19.50;1.00;;;;;;2245800;61;1184;-86
2021/08/29 04:21:38;725657.00;2.42;1251.76;0.00;0.00;0.62;;;;;19.70;1.00;;;;;;2252297;61;1324;-86
2021/08/29 04:24:10;816900.00;2.72;1410.61;8598.00;0.03;15.52;;;;;19.70;1.00;;;;;;2251789;61;1189;-86
2021/08/29 04:26:40;1002359.00;3.34;1736.65;0.00;0.00;0.62;;;;;19.70;1.00;;;;;;2253631;61;1210;-86
2021/08/29 04:29:13;1090718.00;3.64;1893.83;127993.00;0.43;221.87;;;;;19.80;1.00;;;;;;2258350;61;1221;-87
2021/08/29 04:31:53;1214096.00;4.05;2115.73;39663.00;0.13;69.31;;;;;19.90;1.00;;;;;;2257528;61;1430;-87
2021/08/29 04:34:30;798112.00;2.66;1377.83;45300.00;0.15;79.06;;;;;19.70;1.00;;;;;;2260033;61;2012;-86
2021/08/29 04:36:59;953579.00;3.18;1650.42;75531.00;0.25;131.32;;;;;18.70;1.00;;;;;;2248483;61;1127;-87
2021/08/29 04:39:36;1155429.00;3.85;2009.84;100060.00;0.33;173.68;;;;;18.50;1.00;;;;;;2248402;61;1254;-87
2021/08/29 04:42:17;734558.00;2.45;1267.22;9379.00;0.03;16.87;;;;;18.40;1.00;;;;;;2248090;61;1467;-86
2021/08/29 04:45:29;358470.00;1.19;618.42;0.00;0.00;0.62;;;;;18.30;1.00;;;;;;2248597;61;1174;-87
2021/08/29 04:48:00;406997.00;1.36;701.83;0.00;0.00;0.62;;;;;18.20;1.00;;;;;;2252284;61;1170;-86
2021/08/29 04:50:45;355123.00;1.18;612.67;0.00;0.00;0.62;;;;;18.20;1.10;;;;;;2257932;61;1625;-87
2021/08/29 04:53:23;325431.00;1.08;561.63;0.00;0.00;0.62;;;;;18.20;2.10;;;;;;2269197;61;1124;-86
2021/08/29 04:55:50;270255.00;0.90;466.78;35768.00;0.12;62.57;;;;;18.50;1.60;;;;;;2276071;61;1946;-88
2021/08/29 04:58:17;82154.00;0.27;142.76;0.00;0.00;0.62;;;;;19.00;1.00;;;;;;2278468;61;1192;-88
2021/08/29 05:00:44;191672.00;0.64;331.59;0.00;0.00;0.62;;;;;19.10;1.00;;;;;;2279651;61;1301;-88
2021/08/29 05:03:12;57504.00;0.19;100.16;0.00;0.00;0.62;;;;;19.40;1.00;;;;;;2272639;61;1338;-88
2021/08/29 05:05:39;130833.00;0.44;226.77;0.00;0.00;0.62;;;;;19.00;1.00;;;;;;2270458;61;1122;-87
2021/08/29 05:08:07;516384.00;1.72;890.04;140270.00;0.47;243.04;;;;;18.80;1.00;;;;;;2263900;61;1196;-87
2021/08/29 05:10:36;142159.00;0.47;246.29;0.00;0.00;0.62;;;;;18.90;1.00;;;;;;2270819;61;1385;-88
2021/08/29 05:13:03;58341.00;0.19;101.61;0.00;0.00;0.62;;;;;19.00;1.00;;;;;;2266803;61;1077;-88
2021/08/29 05:15:30;130653.00;0.44;226.46;0.00;0.00;0.62;;;;;18.80;1.00;;;;;;2266796;61;1931;-88
2021/08/29 05:17:57;66251.00;0.22;115.28;0.00;0.00;0.62;;;;;19.00;1.00;;;;;;2267469;61;1248;-88
2021/08/29 05:20:28;85231.00;0.28;148.07;0.00;0.00;0.62;;;;;19.30;1.00;;;;;;2267330;61;1313;-88
2021/08/29 05:22:58;105918.00;0.35;183.79;0.00;0.00;0.62;;;;;19.30;1.00;;;;;;2263942;61;1134;-88
2021/08/29 05:25:25;197374.00;0.66;341.40;0.00;0.00;0.62;;;;;18.70;1.00;;;;;;2263141;61;1141;-88
2021/08/29 05:27:54;220485.00;0.73;381.18;0.00;0.00;0.62;;;;;18.50;1.00;;;;;;2259394;61;1279;-88
2021/08/29 05:30:21;114036.00;0.38;197.79;0.00;0.00;0.62;;;;;18.10;2.40;;;;;;2261105;61;1335;-88
2021/08/29 05:32:48;298139.00;0.99;514.72;0.00;0.00;0.62;;;;;18.70;1.00;;;;;;2258888;61;1126;-88
2021/08/29 05:35:15;190764.00;0.64;330.02;0.00;0.00;0.62;;;;;19.10;1.00;;;;;;2255673;61;1997;-88
2021/08/29 05:37:43;230001.00;0.77;397.55;0.00;0.00;0.62;;;;;19.40;1.00;;;;;;2262159;61;1244;-87
2021/08/29 05:40:11;83514.00;0.28;145.11;0.00;0.00;0.62;;;;;19.60;1.00;;;;;;2262772;61;1412;-87
2021/08/29 05:42:38;198454.00;0.66;343.26;0.00;0.00;0.62;;;;;19.40;1.00;;;;;;2258448;61;1191;-87
2021/08/29 05:45:11;188875.00;0.63;326.77;0.00;0.00;0.62;;;;;19.10;1.00;;;;;;2261814;61;1082;-87
2021/08/29 05:47:38;124931.00;0.42;216.59;0.00;0.00;0.62;;;;;18.50;1.00;;;;;;2262954;61;1201;-87
2021/08/29 05:50:06;191711.00;0.64;331.65;0.00;0.00;0.62;;;;;18.40;1.00;;;;;;2267909;60;1406;-87
2021/08/29 05:52:33;69122.00;0.23;120.24;0.00;0.00;0.62;;;;;18.70;2.50;;;;;;2279684;60;1197;-87
2021/08/29 05:55:01;262696.00;0.88;453.78;0.00;0.00;0.62;;;;;18.80;1.00;;;;;;2288110;60;2004;-87
2021/08/29 05:57:30;100688.00;0.34;174.76;0.00;0.00;0.62;;;;;18.90;1.00;;;;;;2278203;60;1327;-87
2021/08/29 06:00:06;57695.00;0.19;100.49;0.00;0.00;0.62;;;;;19.00;1.00;;;;;;2280825;60;1175;-88
2021/08/29 06:02:34;103100.00;0.34;178.92;0.00;0.00;0.62;;;;;19.50;1.10;;;;;;2287827;60;904;-88
2021/08/29 06:05:02;159437.00;0.53;276.07;0.00;0.00;0.62;;;;;19.30;1.00;;;;;;2287261;60;1144;-87
2021/08/29 06:07:28;279408.00;0.93;482.52;0.00;0.00;0.62;;;;;18.90;1.00;;;;;;2277644;61;1098;-87
2021/08/29 06:09:55;185394.00;0.62;320.78;0.00;0.00;0.62;;;;;18.40;2.20;;;;;;2267962;61;1308;-87
2021/08/29 06:12:24;124002.00;0.41;214.99;0.00;0.00;0.62;;;;;19.00;1.90;;;;;;2271024;61;1413;-87
2021/08/29 06:14:51;254157.00;0.85;439.10;0.00;0.00;0.62;;;;;19.70;1.00;;;;;;2267633;61;1943;-87
2021/08/29 06:17:18;273314.00;0.91;472.04;28820.00;0.10;50.54;;;;;19.10;1.00;;;;;;2277504;61;1104;-87
2021/08/29 06:19:45;210929.00;0.70;364.73;0.00;0.00;0.62;;;;;18.10;1.70;;;;;;2277574;61;1126;-87
2021/08/29 06:22:12;320729.00;1.07;553.55;0.00;0.00;0.62;;;;;18.00;4.00;;;;;;2277176;61;1431;-87
2021/08/29 06:24:39;375648.00;1.25;647.94;16632.00;0.06;29.44;;;;;18.20;1.80;;;;;;2267435;60;1300;-87
2021/08/29 06:27:06;193174.00;0.64;334.17;0.00;0.00;0.62;;;;;18.20;2.20;;;;;;2275229;60;1273;-87
2021/08/29 06:29:34;100915.00;0.34;175.15;0.00;0.00;0.62;;;;;17.90;2.80;;;;;;2275707;60;1074;-87
2021/08/29 06:32:01;204647.00;0.68;353.92;0.00;0.00;0.62;;;;;18.30;2.80;;;;;;2286692;60;1355;-87
2021/08/29 06:34:28;151612.00;0.51;262.59;0.00;0.00;0.62;;;;;19.00;3.00;;;;;;2280685;60;2000;-88
2021/08/29 06:36:57;104212.00;0.35;180.84;0.00;0.00;0.62;;;;;18.80;1.00;;;;;;2292828;60;1097;-89
2021/08/29 06:39:24;218200.00;0.73;377.25;0.00;0.00;0.62;;;;;17.50;5.10;;;;;;2288675;60;881;-87
2021/08/29 06:41:51;142444.00;0.47;246.78;0.00;0.00;0.62;;;;;17.40;5.20;;;;;;2276811;60;1339;-88
2021/08/29 06:44:18;261288.00;0.87;451.36;0.00;0.00;0.62;;;;;17.50;5.20;;;;;;2274076;61;1188;-87
2021/08/29 06:46:54;233173.00;0.78;403.01;0.00;0.00;0.62;;;;;18.00;4.60;;;;;;2265999;61;1260;-87
2021/08/29 06:49:25;161973.00;0.54;280.44;0.00;0.00;0.62;;;;;18.20;3.80;;;;;;2264162;61;1183;-87
2021/08/29 06:51:53;293909.00;0.98;507.45;0.00;0.00;0.62;;;;;18.50;1.80;;;;;;2267180;61;1355;-90
2021/08/29 06:54:20;313532.00;1.05;541.18;0.00;0.00;0.62;;;;;18.80;2.40;;;;;;2264323;61;991;-91
2021/08/29 06:56:50;200373.00;0.67;346.57;0.00;0.00;0.62;;;;;19.20;1.70;;;;;;2260646;61;2002;-90
2021/08/29 06:59:17;245915.00;0.82;424.93;0.00;0.00;0.62;;;;;19.50;1.00;;;;;;2263757;61;1078;-89
2021/08/29 07:01:44;177012.00;0.59;306.34;0.00;0.00;0.62;;;;;19.20;1.00;;;;;;2266760;61;1261;-90
2021/08/29 07:04:15;337459.00;1.12;582.31;0.00;0.00;0.62;;;;;18.80;2.20;;;;;;2276468;61;1141;-91
2021/08/29 07:06:42;179593.00;0.60;310.79;0.00;0.00;0.62;;;;;18.90;1.40;;;;;;2277976;61;1057;-91
2021/08/29 07:14:22;842075.00;2.81;1454.60;0.00;0.00;0.62;;;;;19.10;1.00;;;;;;2295298;60;1186;-89
2021/08/29 07:16:51;364312.00;1.21;628.46;44777.00;0.15;78.15;;;;;19.30;1.00;;;;;;2288543;60;1923;-90
2021/08/29 07:19:39;338254.00;1.13;583.67;0.00;0.00;0.62;;;;;19.50;1.00;;;;;;2276205;61;1054;-91
2021/08/29 07:22:06;259056.00;0.86;447.53;0.00;0.00;0.62;;;;;19.80;1.00;;;;;;2268326;61;1476;-90
2021/08/29 07:24:33;243737.00;0.81;421.18;0.00;0.00;0.62;;;;;19.60;1.00;;;;;;2268389;61;1061;-91
2021/08/29 07:27:02;194390.00;0.65;336.27;11931.00;0.04;21.29;;;;;19.30;1.00;;;;;;2264276;61;1095;-91
2021/08/29 07:29:32;183265.00;0.61;317.11;22438.00;0.07;39.49;;;;;19.30;1.40;;;;;;2256219;61;1066;-90
2021/08/29 07:31:59;259248.00;0.86;447.86;0.00;0.00;0.62;;;;;19.70;1.00;;;;;;2252153;61;1345;-90
2021/08/29 07:34:31;319859.00;1.07;552.06;83202.00;0.28;144.57;;;;;19.60;1.00;;;;;;2250463;61;1176;-90
2021/08/29 07:36:59;377239.00;1.26;650.68;56571.00;0.19;98.55;;;;;19.70;1.00;;;;;;2256137;61;1985;-91
2021/08/29 07:39:35;327985.00;1.09;566.02;23997.00;0.08;42.19;;;;;19.40;1.00;;;;;;2248038;61;1055;-90
2021/08/29 07:42:03;641089.00;2.14;1105.22;110825.00;0.37;192.25;;;;;19.10;1.00;;;;;;2244116;61;1300;-90
2021/08/29 07:44:30;489184.00;1.63;843.20;79137.00;0.26;137.55;;;;;19.30;1.00;;;;;;2248574;61;1085;-90
2021/08/29 07:46:59;346239.00;1.15;597.40;0.00;0.00;0.62;;;;;19.30;1.40;;;;;;2256983;61;1059;-91
2021/08/29 07:49:27;310582.00;1.04;536.11;0.00;0.00;0.62;;;;;19.40;1.00;;;;;;2252927;61;1010;-91
2021/08/29 07:51:55;447589.00;1.49;771.64;40785.00;0.14;71.25;;;;;19.20;1.00;;;;;;2253608;61;1264;-91
2021/08/29 07:54:23;323584.00;1.08;558.46;0.00;0.00;0.62;;;;;18.80;1.20;;;;;;2260038;61;1086;-89
2021/08/29 07:56:50;352567.00;1.18;608.27;0.00;0.00;0.62;;;;;18.70;2.50;;;;;;2251840;61;2021;-90
2021/08/29 07:59:17;275085.00;0.92;475.09;0.00;0.00;0.62;;;;;18.70;1.90;;;;;;2253541;61;1035;-89
2021/08/29 08:01:53;378322.00;1.26;652.54;0.00;0.00;0.62;;;;;18.60;2.40;;;;;;2263945;61;1384;-90
2021/08/29 08:04:20;309610.00;1.03;534.44;9439.00;0.03;16.98;;;;;18.50;4.00;;;;;;2255888;61;1003;-90
2021/08/29 08:06:48;485591.00;1.62;837.02;50754.00;0.17;88.49;;;;;18.70;4.30;;;;;;2256717;61;971;-90
2021/08/29 08:09:19;352144.00;1.17;607.55;78104.00;0.26;135.76;;;;;19.10;2.10;;;;;;2261465;61;1060;-90
2021/08/29 08:11:47;324751.00;1.08;560.46;0.00;0.00;0.62;;;;;19.20;1.90;;;;;;2268155;61;1452;-90
2021/08/29 08:14:14;174603.00;0.58;302.19;0.00;0.00;0.62;;;;;19.20;1.60;;;;;;2257682;61;1040;-90
2021/08/29 08:16:41;441849.00;1.47;761.76;3160.00;0.01;6.10;;;;;19.30;1.90;;;;;;2263831;61;2018;-90
2021/08/29 08:19:08;228367.00;0.76;394.74;0.00;0.00;0.62;;;;;19.50;1.00;;;;;;2264030;61;1061;-89
2021/08/29 08:21:36;348037.00;1.16;600.49;16823.00;0.06;29.77;;;;;19.50;1.00;;;;;;2265067;61;1446;-90
2021/08/29 08:24:03;321975.00;1.07;555.69;32094.00;0.11;56.21;;;;;19.60;1.00;;;;;;2263947;61;1011;-90
2021/08/29 08:26:31;378077.00;1.26;652.12;0.00;0.00;0.62;;;;;19.80;1.00;;;;;;2264028;61;1030;-89
2021/08/29 08:29:01;317812.00;1.06;548.54;0.00;0.00;0.62;;;;;19.80;1.00;;;;;;2263920;61;1115;-89
2021/08/29 08:31:28;199066.00;0.66;344.32;0.00;0.00;0.62;;;;;19.20;1.00;;;;;;2264470;61;1405;-89
2021/08/29 08:33:55;1811097.00;6.04;3243.38;181295.00;0.60;313.72;;;;;19.40;1.00;;;;;;2269083;61;1706;-89
2021/08/29 08:36:22;1249303.00;4.16;2179.62;219056.00;0.73;378.72;;;;;19.50;1.00;;;;;;2276059;61;2008;-89
2021/08/29 08:38:51;425133.00;1.42;733.02;77137.00;0.26;134.09;;;;;19.50;1.00;;;;;;2276032;61;1715;-90
2021/08/29 08:41:20;520465.00;1.73;897.07;87134.00;0.29;151.36;;;;;20.10;1.00;;;;;;2277312;60;1332;-89
2021/08/29 08:43:48;396073.00;1.32;683.05;49986.00;0.17;87.16;;;;;19.80;1.00;;;;;;2284716;60;1126;-89
2021/08/29 08:46:18;149878.00;0.50;259.60;0.00;0.00;0.62;;;;;19.80;1.00;;;;;;2284731;60;1121;-88
2021/08/29 08:48:49;116588.00;0.39;202.20;0.00;0.00;0.62;;;;;19.50;2.10;;;;;;2284665;60;961;-90
2021/08/29 08:51:22;182338.00;0.61;315.52;0.00;0.00;0.62;;;;;19.80;1.50;;;;;;2284647;60;1372;-90
2021/08/29 08:53:52;2346550.00;7.82;4361.89;260652.00;0.87;450.27;;;;;19.80;1.00;;;;;;2284668;60;1102;-89
2021/08/29 08:56:20;396474.00;1.32;683.74;89652.00;0.30;155.71;;;;;19.80;1.40;;;;;;2284663;60;1907;-89
2021/08/29 08:58:49;171784.00;0.57;297.34;19697.00;0.07;34.75;;;;;19.90;1.30;;;;;;2284662;60;1106;-90
2021/08/29 09:01:17;207556.00;0.69;358.93;0.00;0.00;0.62;;;;;20.10;2.50;;;;;;2284658;60;1313;-88
2021/08/29 09:03:45;1503706.00;5.01;2650.10;213823.00;0.71;369.71;;;;;20.40;1.80;;;;;;2284605;60;1572;-89
2021/08/29 09:06:12;1916435.00;6.39;3454.13;288224.00;0.96;497.68;;;;;20.00;1.00;;;;;;2284659;60;1133;-90
2021/08/29 09:08:40;327500.00;1.09;565.19;82767.00;0.28;143.82;;;;;19.80;1.00;;;;;;2284593;60;1027;-89
2021/08/29 09:11:08;242002.00;0.81;418.19;0.00;0.00;0.62;;;;;19.70;2.30;;;;;;2284563;60;1714;-89
2021/08/29 09:13:56;883241.00;2.94;1526.70;221481.00;0.74;382.89;;;;;19.70;1.50;;;;;;2284648;60;1040;-88
2021/08/29 09:16:25;1741694.00;5.81;3106.73;289510.00;0.97;499.89;;;;;19.40;2.00;;;;;;2284635;60;1914;-89
2021/08/29 09:18:55;486907.00;1.62;839.29;99892.00;0.33;173.39;;;;;18.90;3.40;;;;;;2284611;60;943;-88
2021/08/29 09:21:24;527414.00;1.76;909.04;32075.00;0.11;56.17;;;;;18.90;4.40;;;;;;2284612;60;1303;-90
2021/08/29 09:23:53;311298.00;1.04;537.34;0.00;0.00;0.62;;;;;19.30;3.40;;;;;;2282635;60;1016;-86
2021/08/29 09:26:22;402351.00;1.34;693.85;86715.00;0.29;150.64;;;;;19.60;3.10;;;;;;2280557;61;1145;-87
2021/08/29 09:28:49;132279.00;0.44;229.26;0.00;0.00;0.62;;;;;19.30;3.10;;;;;;2284514;60;1219;-89
2021/08/29 09:31:18;118333.00;0.39;205.21;0.00;0.00;0.62;;;;;19.50;2.90;;;;;;2279857;61;1418;-89
2021/08/29 09:33:59;145737.00;0.49;252.46;0.00;0.00;0.62;;;;;19.50;3.70;;;;;;2279983;61;1061;-89
2021/08/29 09:36:30;1196797.00;3.99;2084.43;140856.00;0.47;244.05;;;;;20.30;1.60;;;;;;2279969;61;1974;-90
2021/08/29 09:39:10;1631588.00;5.44;2893.26;180328.00;0.60;312.05;;;;;20.80;1.00;;;;;;2279978;61;1117;-88
2021/08/29 09:41:38;368869.00;1.23;636.29;58604.00;0.20;102.06;;;;;20.80;1.00;;;;;;2280020;61;1493;-90
2021/08/29 09:44:16;212770.00;0.71;367.90;10829.00;0.04;19.39;;;;;21.20;1.00;;;;;;2280029;61;936;-92
2021/08/29 09:46:55;259973.00;0.87;449.10;0.00;0.00;0.62;;;;;21.80;1.00;;;;;;2279968;61;1055;-90
2021/08/29 09:49:27;891452.00;2.97;1541.11;27699.00;0.09;48.60;;;;;21.50;1.00;;;;;;2272040;60;976;-90
2021/08/29 09:51:57;792893.00;2.64;1368.73;111684.00;0.37;193.74;;;;;21.10;1.00;;;;;;2284469;60;1827;-89
2021/08/29 09:54:31;206314.00;0.69;356.79;0.00;0.00;0.62;;;;;21.60;1.00;;;;;;2284558;60;1164;-89
2021/08/29 09:56:58;165143.00;0.55;285.90;0.00;0.00;0.62;;;;;21.80;1.00;;;;;;2284445;60;2010;-89
2021/08/29 09:59:39;1479500.00;4.93;2604.60;355907.00;1.19;614.01;;;;;21.80;1.00;;;;;;2279884;61;1018;-91